sensor_id;sensor_type;location;lat;lon;timestamp;P1;durP1;ratioP1;P2;durP2;ratioP2
39370;SDS011;25099;51.946;4.838;2022-07-21T00:00:33;5.93;;;5.53;;
39370;SDS011;25099;51.946;4.838;2022-07-21T00:02:59;7.90;;;6.20;;
39370;SDS011;25099;51.946;4.838;2022-07-21T00:05:25;5.80;;;5.30;;
39370;SDS011;25099;51.946;4.838;2022-07-21T00:07:51;7.13;;;6.53;;
39370;SDS011;25099;51.946;4.838;2022-07-21T00:10:18;6.80;;;6.20;;
39370;SDS011;25099;51.946;4.838;2022-07-21T00:12:45;6.20;;;5.70;;
39370;SDS011;25099;51.946;4.838;2022-07-21T00:15:11;6.55;;;6.00;;
39370;SDS011;25099;51.946;4.838;2022-07-21T00:17:37;9.32;;;6.05;;
39370;SDS011;25099;51.946;4.838;2022-07-21T00:20:04;8.88;;;6.50;;
39370;SDS011;25099;51.946;4.838;2022-07-21T00:22:31;8.57;;;7.80;;
39370;SDS011;25099;51.946;4.838;2022-07-21T00:24:57;7.65;;;7.05;;
39370;SDS011;25099;51.946;4.838;2022-07-21T00:27:23;7.70;;;7.00;;
39370;SDS011;25099;51.946;4.838;2022-07-21T00:29:49;7.80;;;7.10;;
39370;SDS011;25099;51.946;4.838;2022-07-21T00:32:15;6.80;;;6.30;;
39370;SDS011;25099;51.946;4.838;2022-07-21T00:34:41;8.98;;;7.53;;
39370;SDS011;25099;51.946;4.838;2022-07-21T00:37:06;8.30;;;7.60;;
39370;SDS011;25099;51.946;4.838;2022-07-21T00:39:32;8.57;;;7.43;;
39370;SDS011;25099;51.946;4.838;2022-07-21T00:41:58;8.02;;;7.30;;
39370;SDS011;25099;51.946;4.838;2022-07-21T00:44:25;7.47;;;6.72;;
39370;SDS011;25099;51.946;4.838;2022-07-21T00:46:51;8.48;;;7.63;;
39370;SDS011;25099;51.946;4.838;2022-07-21T00:49:18;8.70;;;7.75;;
39370;SDS011;25099;51.946;4.838;2022-07-21T00:51:44;8.10;;;7.35;;
39370;SDS011;25099;51.946;4.838;2022-07-21T00:54:11;8.85;;;8.05;;
39370;SDS011;25099;51.946;4.838;2022-07-21T00:56:39;8.10;;;7.50;;
39370;SDS011;25099;51.946;4.838;2022-07-21T00:59:04;7.97;;;7.35;;
39370;SDS011;25099;51.946;4.838;2022-07-21T01:01:30;8.60;;;7.80;;
39370;SDS011;25099;51.946;4.838;2022-07-21T01:03:56;9.13;;;8.20;;
39370;SDS011;25099;51.946;4.838;2022-07-21T01:06:23;8.98;;;8.18;;
39370;SDS011;25099;51.946;4.838;2022-07-21T01:08:50;10.30;;;9.30;;
39370;SDS011;25099;51.946;4.838;2022-07-21T01:11:16;10.52;;;9.52;;
39370;SDS011;25099;51.946;4.838;2022-07-21T01:13:43;11.88;;;10.75;;
39370;SDS011;25099;51.946;4.838;2022-07-21T01:16:09;12.57;;;11.32;;
39370;SDS011;25099;51.946;4.838;2022-07-21T01:18:35;12.55;;;11.25;;
39370;SDS011;25099;51.946;4.838;2022-07-21T01:21:02;13.60;;;12.20;;
39370;SDS011;25099;51.946;4.838;2022-07-21T01:23:29;11.95;;;10.75;;
39370;SDS011;25099;51.946;4.838;2022-07-21T01:25:56;11.85;;;10.85;;
39370;SDS011;25099;51.946;4.838;2022-07-21T01:28:21;11.43;;;10.52;;
39370;SDS011;25099;51.946;4.838;2022-07-21T01:30:47;12.98;;;11.88;;
39370;SDS011;25099;51.946;4.838;2022-07-21T01:33:12;13.30;;;12.02;;
39370;SDS011;25099;51.946;4.838;2022-07-21T01:35:38;12.35;;;11.15;;
39370;SDS011;25099;51.946;4.838;2022-07-21T01:38:03;13.10;;;10.75;;
39370;SDS011;25099;51.946;4.838;2022-07-21T01:40:56;12.52;;;11.35;;
39370;SDS011;25099;51.946;4.838;2022-07-21T01:43:47;12.43;;;11.30;;
39370;SDS011;25099;51.946;4.838;2022-07-21T01:46:13;11.60;;;10.55;;
39370;SDS011;25099;51.946;4.838;2022-07-21T01:48:42;13.10;;;12.00;;
39370;SDS011;25099;51.946;4.838;2022-07-21T01:53:35;12.15;;;10.95;;
39370;SDS011;25099;51.946;4.838;2022-07-21T01:56:01;14.02;;;12.65;;
39370;SDS011;25099;51.946;4.838;2022-07-21T01:58:26;13.95;;;12.65;;
39370;SDS011;25099;51.946;4.838;2022-07-21T02:00:52;13.45;;;12.13;;
39370;SDS011;25099;51.946;4.838;2022-07-21T02:03:17;14.15;;;12.75;;
39370;SDS011;25099;51.946;4.838;2022-07-21T02:05:43;14.70;;;13.27;;
39370;SDS011;25099;51.946;4.838;2022-07-21T02:08:08;14.48;;;13.18;;
39370;SDS011;25099;51.946;4.838;2022-07-21T02:10:35;14.80;;;13.30;;
39370;SDS011;25099;51.946;4.838;2022-07-21T02:13:01;14.68;;;13.18;;
39370;SDS011;25099;51.946;4.838;2022-07-21T02:15:28;14.30;;;12.93;;
39370;SDS011;25099;51.946;4.838;2022-07-21T02:17:54;16.15;;;14.50;;
39370;SDS011;25099;51.946;4.838;2022-07-21T02:20:20;15.70;;;13.93;;
39370;SDS011;25099;51.946;4.838;2022-07-21T02:22:46;15.60;;;14.15;;
39370;SDS011;25099;51.946;4.838;2022-07-21T02:25:12;15.45;;;13.98;;
39370;SDS011;25099;51.946;4.838;2022-07-21T02:27:38;14.35;;;13.13;;
39370;SDS011;25099;51.946;4.838;2022-07-21T02:30:05;14.80;;;13.25;;
39370;SDS011;25099;51.946;4.838;2022-07-21T02:32:30;18.13;;;13.38;;
39370;SDS011;25099;51.946;4.838;2022-07-21T02:34:56;15.63;;;13.93;;
39370;SDS011;25099;51.946;4.838;2022-07-21T02:37:22;14.02;;;12.57;;
39370;SDS011;25099;51.946;4.838;2022-07-21T02:39:47;14.38;;;13.02;;
39370;SDS011;25099;51.946;4.838;2022-07-21T02:42:13;16.55;;;14.68;;
39370;SDS011;25099;51.946;4.838;2022-07-21T02:44:39;14.43;;;13.13;;
39370;SDS011;25099;51.946;4.838;2022-07-21T02:47:05;14.40;;;12.80;;
39370;SDS011;25099;51.946;4.838;2022-07-21T02:49:31;17.13;;;13.63;;
39370;SDS011;25099;51.946;4.838;2022-07-21T02:51:56;15.15;;;13.32;;
39370;SDS011;25099;51.946;4.838;2022-07-21T02:54:22;14.82;;;13.02;;
39370;SDS011;25099;51.946;4.838;2022-07-21T02:56:48;14.27;;;12.80;;
39370;SDS011;25099;51.946;4.838;2022-07-21T02:59:13;15.85;;;13.90;;
39370;SDS011;25099;51.946;4.838;2022-07-21T03:01:39;16.13;;;14.48;;
39370;SDS011;25099;51.946;4.838;2022-07-21T03:04:04;14.85;;;13.35;;
39370;SDS011;25099;51.946;4.838;2022-07-21T03:06:30;15.10;;;13.57;;
39370;SDS011;25099;51.946;4.838;2022-07-21T03:08:56;15.48;;;12.88;;
39370;SDS011;25099;51.946;4.838;2022-07-21T03:11:21;16.52;;;14.80;;
39370;SDS011;25099;51.946;4.838;2022-07-21T03:13:47;14.60;;;13.10;;
39370;SDS011;25099;51.946;4.838;2022-07-21T03:16:13;16.27;;;14.10;;
39370;SDS011;25099;51.946;4.838;2022-07-21T03:18:38;16.27;;;14.73;;
39370;SDS011;25099;51.946;4.838;2022-07-21T03:21:04;15.45;;;13.75;;
39370;SDS011;25099;51.946;4.838;2022-07-21T03:23:30;15.82;;;14.20;;
39370;SDS011;25099;51.946;4.838;2022-07-21T03:25:55;17.65;;;15.45;;
39370;SDS011;25099;51.946;4.838;2022-07-21T03:28:24;15.93;;;14.23;;
39370;SDS011;25099;51.946;4.838;2022-07-21T03:30:49;15.82;;;14.25;;
39370;SDS011;25099;51.946;4.838;2022-07-21T03:33:15;17.23;;;14.93;;
39370;SDS011;25099;51.946;4.838;2022-07-21T03:35:41;16.13;;;14.45;;
39370;SDS011;25099;51.946;4.838;2022-07-21T03:38:07;16.45;;;14.38;;
39370;SDS011;25099;51.946;4.838;2022-07-21T03:40:34;16.33;;;14.38;;
39370;SDS011;25099;51.946;4.838;2022-07-21T03:43:01;18.67;;;15.35;;
39370;SDS011;25099;51.946;4.838;2022-07-21T03:45:31;16.55;;;14.95;;
39370;SDS011;25099;51.946;4.838;2022-07-21T03:47:58;17.27;;;15.25;;
39370;SDS011;25099;51.946;4.838;2022-07-21T03:50:25;17.58;;;15.60;;
39370;SDS011;25099;51.946;4.838;2022-07-21T03:52:51;17.63;;;15.90;;
39370;SDS011;25099;51.946;4.838;2022-07-21T03:55:16;22.83;;;17.05;;
39370;SDS011;25099;51.946;4.838;2022-07-21T04:00:14;19.38;;;16.60;;
39370;SDS011;25099;51.946;4.838;2022-07-21T04:02:43;18.83;;;15.75;;
39370;SDS011;25099;51.946;4.838;2022-07-21T04:05:09;18.88;;;16.92;;
39370;SDS011;25099;51.946;4.838;2022-07-21T04:07:36;20.83;;;18.25;;
39370;SDS011;25099;51.946;4.838;2022-07-21T04:10:05;17.58;;;15.80;;
39370;SDS011;25099;51.946;4.838;2022-07-21T04:12:30;18.95;;;16.95;;
39370;SDS011;25099;51.946;4.838;2022-07-21T04:14:56;20.50;;;18.33;;
39370;SDS011;25099;51.946;4.838;2022-07-21T04:17:21;20.17;;;17.55;;
39370;SDS011;25099;51.946;4.838;2022-07-21T04:19:47;19.20;;;17.17;;
39370;SDS011;25099;51.946;4.838;2022-07-21T04:22:13;20.40;;;18.27;;
39370;SDS011;25099;51.946;4.838;2022-07-21T04:24:38;19.73;;;17.73;;
39370;SDS011;25099;51.946;4.838;2022-07-21T04:27:04;21.55;;;17.50;;
39370;SDS011;25099;51.946;4.838;2022-07-21T04:29:30;19.95;;;17.33;;
39370;SDS011;25099;51.946;4.838;2022-07-21T04:31:58;20.98;;;17.48;;
39370;SDS011;25099;51.946;4.838;2022-07-21T04:34:24;20.85;;;16.23;;
39370;SDS011;25099;51.946;4.838;2022-07-21T04:36:50;18.90;;;16.75;;
39370;SDS011;25099;51.946;4.838;2022-07-21T04:39:15;19.98;;;16.77;;
39370;SDS011;25099;51.946;4.838;2022-07-21T04:41:41;18.13;;;16.33;;
39370;SDS011;25099;51.946;4.838;2022-07-21T04:44:06;20.25;;;15.45;;
39370;SDS011;25099;51.946;4.838;2022-07-21T04:46:32;17.25;;;15.50;;
39370;SDS011;25099;51.946;4.838;2022-07-21T04:48:58;17.73;;;14.63;;
39370;SDS011;25099;51.946;4.838;2022-07-21T04:51:23;21.17;;;17.02;;
39370;SDS011;25099;51.946;4.838;2022-07-21T04:53:49;16.45;;;14.38;;
39370;SDS011;25099;51.946;4.838;2022-07-21T04:56:14;16.42;;;14.50;;
39370;SDS011;25099;51.946;4.838;2022-07-21T04:58:40;18.23;;;15.30;;
39370;SDS011;25099;51.946;4.838;2022-07-21T05:01:05;17.55;;;14.27;;
39370;SDS011;25099;51.946;4.838;2022-07-21T05:03:31;20.98;;;16.20;;
39370;SDS011;25099;51.946;4.838;2022-07-21T05:05:57;21.92;;;16.10;;
39370;SDS011;25099;51.946;4.838;2022-07-21T05:08:22;24.23;;;15.77;;
39370;SDS011;25099;51.946;4.838;2022-07-21T05:10:48;22.15;;;16.17;;
39370;SDS011;25099;51.946;4.838;2022-07-21T05:13:13;18.40;;;14.93;;
39370;SDS011;25099;51.946;4.838;2022-07-21T05:15:39;20.35;;;14.93;;
39370;SDS011;25099;51.946;4.838;2022-07-21T05:18:06;23.50;;;15.20;;
39370;SDS011;25099;51.946;4.838;2022-07-21T05:20:32;21.63;;;14.48;;
39370;SDS011;25099;51.946;4.838;2022-07-21T05:23:02;21.05;;;15.75;;
39370;SDS011;25099;51.946;4.838;2022-07-21T05:25:28;23.15;;;16.73;;
39370;SDS011;25099;51.946;4.838;2022-07-21T05:27:56;19.15;;;15.45;;
39370;SDS011;25099;51.946;4.838;2022-07-21T05:30:22;19.63;;;14.82;;
39370;SDS011;25099;51.946;4.838;2022-07-21T05:32:48;21.88;;;15.95;;
39370;SDS011;25099;51.946;4.838;2022-07-21T05:35:14;22.95;;;15.93;;
39370;SDS011;25099;51.946;4.838;2022-07-21T05:37:40;23.70;;;17.05;;
39370;SDS011;25099;51.946;4.838;2022-07-21T05:40:06;27.60;;;17.60;;
39370;SDS011;25099;51.946;4.838;2022-07-21T05:42:33;28.88;;;17.38;;
39370;SDS011;25099;51.946;4.838;2022-07-21T05:44:59;22.70;;;17.23;;
39370;SDS011;25099;51.946;4.838;2022-07-21T05:47:25;28.80;;;16.33;;
39370;SDS011;25099;51.946;4.838;2022-07-21T05:49:50;23.92;;;16.88;;
39370;SDS011;25099;51.946;4.838;2022-07-21T05:52:16;23.08;;;15.48;;
39370;SDS011;25099;51.946;4.838;2022-07-21T05:54:41;27.20;;;15.43;;
39370;SDS011;25099;51.946;4.838;2022-07-21T05:57:07;18.52;;;14.43;;
39370;SDS011;25099;51.946;4.838;2022-07-21T05:59:32;26.90;;;16.27;;
39370;SDS011;25099;51.946;4.838;2022-07-21T06:01:58;20.35;;;16.33;;
39370;SDS011;25099;51.946;4.838;2022-07-21T06:04:25;23.60;;;15.27;;
39370;SDS011;25099;51.946;4.838;2022-07-21T06:06:50;29.63;;;18.33;;
39370;SDS011;25099;51.946;4.838;2022-07-21T06:09:17;25.65;;;16.65;;
39370;SDS011;25099;51.946;4.838;2022-07-21T06:11:43;26.85;;;17.88;;
39370;SDS011;25099;51.946;4.838;2022-07-21T06:14:09;24.27;;;17.50;;
39370;SDS011;25099;51.946;4.838;2022-07-21T06:16:35;32.78;;;19.25;;
39370;SDS011;25099;51.946;4.838;2022-07-21T06:19:00;23.50;;;17.25;;
39370;SDS011;25099;51.946;4.838;2022-07-21T06:21:26;28.65;;;18.13;;
39370;SDS011;25099;51.946;4.838;2022-07-21T06:23:52;32.95;;;19.67;;
39370;SDS011;25099;51.946;4.838;2022-07-21T06:26:18;37.30;;;19.75;;
39370;SDS011;25099;51.946;4.838;2022-07-21T06:28:44;26.55;;;21.02;;
39370;SDS011;25099;51.946;4.838;2022-07-21T06:31:09;32.55;;;22.23;;
39370;SDS011;25099;51.946;4.838;2022-07-21T06:33:35;33.33;;;21.45;;
39370;SDS011;25099;51.946;4.838;2022-07-21T06:36:01;39.17;;;21.42;;
39370;SDS011;25099;51.946;4.838;2022-07-21T06:38:26;32.35;;;20.85;;
39370;SDS011;25099;51.946;4.838;2022-07-21T06:40:52;35.72;;;21.73;;
39370;SDS011;25099;51.946;4.838;2022-07-21T06:43:18;28.13;;;19.10;;
39370;SDS011;25099;51.946;4.838;2022-07-21T06:45:44;38.90;;;21.73;;
39370;SDS011;25099;51.946;4.838;2022-07-21T06:48:09;36.03;;;22.65;;
39370;SDS011;25099;51.946;4.838;2022-07-21T06:50:35;40.83;;;22.15;;
39370;SDS011;25099;51.946;4.838;2022-07-21T06:53:02;38.15;;;23.08;;
39370;SDS011;25099;51.946;4.838;2022-07-21T06:55:28;30.52;;;22.95;;
39370;SDS011;25099;51.946;4.838;2022-07-21T06:57:54;32.17;;;20.42;;
39370;SDS011;25099;51.946;4.838;2022-07-21T07:00:20;39.78;;;22.05;;
39370;SDS011;25099;51.946;4.838;2022-07-21T07:02:46;27.75;;;19.88;;
39370;SDS011;25099;51.946;4.838;2022-07-21T07:05:11;29.65;;;20.20;;
39370;SDS011;25099;51.946;4.838;2022-07-21T07:07:37;25.60;;;19.95;;
39370;SDS011;25099;51.946;4.838;2022-07-21T07:10:03;29.15;;;19.70;;
39370;SDS011;25099;51.946;4.838;2022-07-21T07:12:29;27.50;;;20.02;;
39370;SDS011;25099;51.946;4.838;2022-07-21T07:14:55;33.22;;;20.58;;
39370;SDS011;25099;51.946;4.838;2022-07-21T07:17:21;25.05;;;19.65;;
39370;SDS011;25099;51.946;4.838;2022-07-21T07:19:47;33.03;;;20.77;;
39370;SDS011;25099;51.946;4.838;2022-07-21T07:22:13;33.13;;;21.38;;
39370;SDS011;25099;51.946;4.838;2022-07-21T07:24:39;28.27;;;20.77;;
39370;SDS011;25099;51.946;4.838;2022-07-21T07:27:05;30.50;;;20.30;;
39370;SDS011;25099;51.946;4.838;2022-07-21T07:29:31;27.73;;;19.67;;
39370;SDS011;25099;51.946;4.838;2022-07-21T07:31:57;24.30;;;20.10;;
39370;SDS011;25099;51.946;4.838;2022-07-21T07:34:23;24.98;;;19.33;;
39370;SDS011;25099;51.946;4.838;2022-07-21T07:36:49;29.17;;;20.92;;
39370;SDS011;25099;51.946;4.838;2022-07-21T07:39:15;32.67;;;18.35;;
39370;SDS011;25099;51.946;4.838;2022-07-21T07:41:41;24.50;;;16.40;;
39370;SDS011;25099;51.946;4.838;2022-07-21T07:44:07;20.50;;;16.38;;
39370;SDS011;25099;51.946;4.838;2022-07-21T07:46:33;20.55;;;14.52;;
39370;SDS011;25099;51.946;4.838;2022-07-21T07:48:59;16.13;;;13.00;;
39370;SDS011;25099;51.946;4.838;2022-07-21T07:51:25;14.73;;;11.73;;
39370;SDS011;25099;51.946;4.838;2022-07-21T07:53:51;13.57;;;8.73;;
39370;SDS011;25099;51.946;4.838;2022-07-21T07:56:16;7.40;;;6.57;;
39370;SDS011;25099;51.946;4.838;2022-07-21T07:58:42;8.65;;;6.38;;
39370;SDS011;25099;51.946;4.838;2022-07-21T08:01:08;7.85;;;7.05;;
39370;SDS011;25099;51.946;4.838;2022-07-21T08:03:34;7.63;;;6.85;;
39370;SDS011;25099;51.946;4.838;2022-07-21T08:06:00;7.70;;;6.88;;
39370;SDS011;25099;51.946;4.838;2022-07-21T08:08:28;6.72;;;6.13;;
39370;SDS011;25099;51.946;4.838;2022-07-21T08:10:55;7.15;;;6.35;;
39370;SDS011;25099;51.946;4.838;2022-07-21T08:13:20;6.78;;;6.07;;
39370;SDS011;25099;51.946;4.838;2022-07-21T08:15:46;6.85;;;5.47;;
39370;SDS011;25099;51.946;4.838;2022-07-21T08:18:13;6.90;;;5.03;;
39370;SDS011;25099;51.946;4.838;2022-07-21T08:20:39;6.13;;;5.50;;
39370;SDS011;25099;51.946;4.838;2022-07-21T08:23:04;5.65;;;5.15;;
39370;SDS011;25099;51.946;4.838;2022-07-21T08:25:30;6.07;;;5.47;;
39370;SDS011;25099;51.946;4.838;2022-07-21T08:27:56;8.00;;;5.90;;
39370;SDS011;25099;51.946;4.838;2022-07-21T08:30:22;6.50;;;5.93;;
39370;SDS011;25099;51.946;4.838;2022-07-21T08:32:48;6.47;;;5.05;;
39370;SDS011;25099;51.946;4.838;2022-07-21T08:35:13;7.68;;;5.65;;
39370;SDS011;25099;51.946;4.838;2022-07-21T08:37:39;5.78;;;5.28;;
39370;SDS011;25099;51.946;4.838;2022-07-21T08:40:07;8.23;;;5.68;;
39370;SDS011;25099;51.946;4.838;2022-07-21T08:42:34;6.47;;;5.85;;
39370;SDS011;25099;51.946;4.838;2022-07-21T08:45:03;6.20;;;5.70;;
39370;SDS011;25099;51.946;4.838;2022-07-21T08:47:29;6.40;;;5.88;;
39370;SDS011;25099;51.946;4.838;2022-07-21T08:49:56;7.22;;;6.07;;
39370;SDS011;25099;51.946;4.838;2022-07-21T08:52:22;9.70;;;6.80;;
39370;SDS011;25099;51.946;4.838;2022-07-21T08:54:48;8.02;;;7.22;;
39370;SDS011;25099;51.946;4.838;2022-07-21T08:57:15;8.20;;;7.40;;
39370;SDS011;25099;51.946;4.838;2022-07-21T08:59:41;11.10;;;7.85;;
39370;SDS011;25099;51.946;4.838;2022-07-21T09:02:23;9.18;;;7.60;;
39370;SDS011;25099;51.946;4.838;2022-07-21T09:04:53;8.95;;;7.95;;
39370;SDS011;25099;51.946;4.838;2022-07-21T09:07:19;9.77;;;8.85;;
39370;SDS011;25099;51.946;4.838;2022-07-21T09:09:53;12.00;;;8.82;;
39370;SDS011;25099;51.946;4.838;2022-07-21T09:12:24;10.00;;;8.75;;
39370;SDS011;25099;51.946;4.838;2022-07-21T09:14:50;12.95;;;8.45;;
39370;SDS011;25099;51.946;4.838;2022-07-21T09:17:16;12.48;;;8.07;;
39370;SDS011;25099;51.946;4.838;2022-07-21T09:19:44;11.40;;;7.72;;
39370;SDS011;25099;51.946;4.838;2022-07-21T09:22:13;9.27;;;7.88;;
39370;SDS011;25099;51.946;4.838;2022-07-21T09:24:42;9.05;;;7.63;;
39370;SDS011;25099;51.946;4.838;2022-07-21T09:27:26;13.60;;;8.90;;
39370;SDS011;25099;51.946;4.838;2022-07-21T09:29:52;10.38;;;9.00;;
39370;SDS011;25099;51.946;4.838;2022-07-21T09:32:34;10.95;;;9.77;;
39370;SDS011;25099;51.946;4.838;2022-07-21T09:37:31;14.68;;;10.48;;
39370;SDS011;25099;51.946;4.838;2022-07-21T09:39:58;15.52;;;10.40;;
39370;SDS011;25099;51.946;4.838;2022-07-21T09:42:31;17.75;;;11.10;;
39370;SDS011;25099;51.946;4.838;2022-07-21T09:44:59;17.92;;;11.55;;
39370;SDS011;25099;51.946;4.838;2022-07-21T09:47:28;17.13;;;9.38;;
39370;SDS011;25099;51.946;4.838;2022-07-21T09:49:55;16.88;;;9.65;;
39370;SDS011;25099;51.946;4.838;2022-07-21T09:54:59;16.42;;;9.40;;
39370;SDS011;25099;51.946;4.838;2022-07-21T09:57:27;17.52;;;10.90;;
39370;SDS011;25099;51.946;4.838;2022-07-21T09:59:53;18.77;;;10.30;;
39370;SDS011;25099;51.946;4.838;2022-07-21T10:02:23;11.75;;;8.98;;
39370;SDS011;25099;51.946;4.838;2022-07-21T10:04:55;10.38;;;9.18;;
39370;SDS011;25099;51.946;4.838;2022-07-21T10:07:25;9.18;;;8.30;;
39370;SDS011;25099;51.946;4.838;2022-07-21T10:09:52;9.00;;;8.10;;
39370;SDS011;25099;51.946;4.838;2022-07-21T10:12:18;7.88;;;7.15;;
39370;SDS011;25099;51.946;4.838;2022-07-21T10:14:44;10.75;;;7.32;;
39370;SDS011;25099;51.946;4.838;2022-07-21T10:17:11;7.65;;;6.90;;
39370;SDS011;25099;51.946;4.838;2022-07-21T10:19:45;11.40;;;7.07;;
39370;SDS011;25099;51.946;4.838;2022-07-21T10:22:20;8.13;;;6.40;;
39370;SDS011;25099;51.946;4.838;2022-07-21T10:24:55;9.50;;;7.05;;
39370;SDS011;25099;51.946;4.838;2022-07-21T10:27:22;6.82;;;6.22;;
39370;SDS011;25099;51.946;4.838;2022-07-21T10:29:49;6.35;;;5.75;;
39370;SDS011;25099;51.946;4.838;2022-07-21T10:32:23;5.30;;;4.90;;
39370;SDS011;25099;51.946;4.838;2022-07-21T10:34:51;8.07;;;6.20;;
39370;SDS011;25099;51.946;4.838;2022-07-21T10:40:05;7.68;;;7.00;;
39370;SDS011;25099;51.946;4.838;2022-07-21T10:45:30;6.07;;;5.55;;
39370;SDS011;25099;51.946;4.838;2022-07-21T10:47:56;5.53;;;4.97;;
39370;SDS011;25099;51.946;4.838;2022-07-21T10:50:35;4.82;;;4.43;;
39370;SDS011;25099;51.946;4.838;2022-07-21T10:53:03;3.60;;;3.30;;
39370;SDS011;25099;51.946;4.838;2022-07-21T10:55:31;3.22;;;2.70;;
39370;SDS011;25099;51.946;4.838;2022-07-21T11:00:58;4.13;;;3.80;;
39370;SDS011;25099;51.946;4.838;2022-07-21T11:03:43;7.53;;;3.50;;
39370;SDS011;25099;51.946;4.838;2022-07-21T11:09:05;4.43;;;3.80;;
39370;SDS011;25099;51.946;4.838;2022-07-21T11:14:35;4.73;;;3.70;;
39370;SDS011;25099;51.946;4.838;2022-07-21T11:17:03;3.72;;;3.38;;
39370;SDS011;25099;51.946;4.838;2022-07-21T11:19:30;3.10;;;2.80;;
39370;SDS011;25099;51.946;4.838;2022-07-21T11:22:12;3.38;;;3.13;;
39370;SDS011;25099;51.946;4.838;2022-07-21T11:25:04;4.15;;;3.75;;
39370;SDS011;25099;51.946;4.838;2022-07-21T11:27:31;6.18;;;3.75;;
39370;SDS011;25099;51.946;4.838;2022-07-21T11:29:59;4.72;;;2.92;;
39370;SDS011;25099;51.946;4.838;2022-07-21T11:32:27;3.45;;;3.15;;
39370;SDS011;25099;51.946;4.838;2022-07-21T11:34:54;4.15;;;2.97;;
39370;SDS011;25099;51.946;4.838;2022-07-21T11:39:53;3.45;;;3.00;;
39370;SDS011;25099;51.946;4.838;2022-07-21T11:42:18;5.60;;;3.83;;
39370;SDS011;25099;51.946;4.838;2022-07-21T11:44:45;3.40;;;3.10;;
39370;SDS011;25099;51.946;4.838;2022-07-21T11:47:12;3.63;;;3.13;;
39370;SDS011;25099;51.946;4.838;2022-07-21T11:49:40;2.35;;;2.15;;
39370;SDS011;25099;51.946;4.838;2022-07-21T11:52:11;2.97;;;2.67;;
39370;SDS011;25099;51.946;4.838;2022-07-21T11:54:42;4.45;;;2.13;;
39370;SDS011;25099;51.946;4.838;2022-07-21T11:57:13;2.50;;;2.10;;
39370;SDS011;25099;51.946;4.838;2022-07-21T11:59:41;6.60;;;3.17;;
39370;SDS011;25099;51.946;4.838;2022-07-21T12:02:14;3.97;;;2.10;;
39370;SDS011;25099;51.946;4.838;2022-07-21T12:04:43;2.40;;;2.20;;
39370;SDS011;25099;51.946;4.838;2022-07-21T12:09:51;2.78;;;2.28;;
39370;SDS011;25099;51.946;4.838;2022-07-21T12:12:28;3.00;;;2.13;;
39370;SDS011;25099;51.946;4.838;2022-07-21T12:14:55;2.80;;;2.05;;
39370;SDS011;25099;51.946;4.838;2022-07-21T12:17:34;2.47;;;2.10;;
39370;SDS011;25099;51.946;4.838;2022-07-21T12:20:31;6.70;;;2.28;;
39370;SDS011;25099;51.946;4.838;2022-07-21T12:22:59;3.80;;;2.40;;
39370;SDS011;25099;51.946;4.838;2022-07-21T12:25:36;2.97;;;2.42;;
39370;SDS011;25099;51.946;4.838;2022-07-21T12:28:04;3.47;;;2.17;;
39370;SDS011;25099;51.946;4.838;2022-07-21T12:30:41;3.55;;;1.92;;
39370;SDS011;25099;51.946;4.838;2022-07-21T12:33:12;2.78;;;1.85;;
39370;SDS011;25099;51.946;4.838;2022-07-21T12:35:44;3.55;;;2.47;;
39370;SDS011;25099;51.946;4.838;2022-07-21T12:38:21;3.30;;;1.88;;
39370;SDS011;25099;51.946;4.838;2022-07-21T12:40:48;2.13;;;1.50;;
39370;SDS011;25099;51.946;4.838;2022-07-21T12:43:16;2.72;;;1.83;;
39370;SDS011;25099;51.946;4.838;2022-07-21T12:45:44;1.90;;;1.45;;
39370;SDS011;25099;51.946;4.838;2022-07-21T12:48:30;3.08;;;1.60;;
39370;SDS011;25099;51.946;4.838;2022-07-21T12:53:29;3.92;;;1.58;;
39370;SDS011;25099;51.946;4.838;2022-07-21T12:55:55;3.03;;;1.42;;
39370;SDS011;25099;51.946;4.838;2022-07-21T12:58:23;1.98;;;1.10;;
39370;SDS011;25099;51.946;4.838;2022-07-21T13:00:48;6.45;;;1.65;;
39370;SDS011;25099;51.946;4.838;2022-07-21T13:03:14;1.88;;;1.20;;
39370;SDS011;25099;51.946;4.838;2022-07-21T13:05:40;3.72;;;1.48;;
39370;SDS011;25099;51.946;4.838;2022-07-21T13:08:06;3.42;;;1.25;;
39370;SDS011;25099;51.946;4.838;2022-07-21T13:10:31;6.32;;;1.42;;
39370;SDS011;25099;51.946;4.838;2022-07-21T13:12:57;1.63;;;0.82;;
39370;SDS011;25099;51.946;4.838;2022-07-21T13:15:23;2.35;;;1.20;;
39370;SDS011;25099;51.946;4.838;2022-07-21T13:17:48;2.67;;;1.23;;
39370;SDS011;25099;51.946;4.838;2022-07-21T13:20:14;6.22;;;1.65;;
39370;SDS011;25099;51.946;4.838;2022-07-21T13:22:40;4.90;;;1.83;;
39370;SDS011;25099;51.946;4.838;2022-07-21T13:25:06;4.57;;;1.80;;
39370;SDS011;25099;51.946;4.838;2022-07-21T13:27:32;1.85;;;1.50;;
39370;SDS011;25099;51.946;4.838;2022-07-21T13:29:59;7.75;;;1.60;;
39370;SDS011;25099;51.946;4.838;2022-07-21T13:32:25;3.78;;;1.70;;
39370;SDS011;25099;51.946;4.838;2022-07-21T13:34:51;4.57;;;2.05;;
39370;SDS011;25099;51.946;4.838;2022-07-21T13:37:17;5.25;;;1.77;;
39370;SDS011;25099;51.946;4.838;2022-07-21T13:39:42;3.88;;;2.13;;
39370;SDS011;25099;51.946;4.838;2022-07-21T13:42:08;5.28;;;2.45;;
39370;SDS011;25099;51.946;4.838;2022-07-21T13:44:34;3.70;;;2.50;;
39370;SDS011;25099;51.946;4.838;2022-07-21T13:46:59;7.63;;;2.33;;
39370;SDS011;25099;51.946;4.838;2022-07-21T13:49:25;4.45;;;2.40;;
39370;SDS011;25099;51.946;4.838;2022-07-21T13:51:51;6.35;;;2.42;;
39370;SDS011;25099;51.946;4.838;2022-07-21T13:54:16;7.95;;;3.00;;
39370;SDS011;25099;51.946;4.838;2022-07-21T13:56:42;10.90;;;2.95;;
39370;SDS011;25099;51.946;4.838;2022-07-21T13:59:08;14.65;;;3.45;;
39370;SDS011;25099;51.946;4.838;2022-07-21T14:01:33;5.45;;;2.67;;
39370;SDS011;25099;51.946;4.838;2022-07-21T14:03:59;9.50;;;3.25;;
39370;SDS011;25099;51.946;4.838;2022-07-21T14:06:24;7.90;;;2.90;;
39370;SDS011;25099;51.946;4.838;2022-07-21T14:08:50;10.60;;;2.72;;
39370;SDS011;25099;51.946;4.838;2022-07-21T14:11:16;17.65;;;3.50;;
39370;SDS011;25099;51.946;4.838;2022-07-21T14:13:42;10.10;;;2.50;;
39370;SDS011;25099;51.946;4.838;2022-07-21T14:16:08;12.40;;;2.38;;
39370;SDS011;25099;51.946;4.838;2022-07-21T14:18:34;16.60;;;2.90;;
39370;SDS011;25099;51.946;4.838;2022-07-21T14:21:00;9.40;;;2.47;;
39370;SDS011;25099;51.946;4.838;2022-07-21T14:23:26;8.35;;;2.78;;
39370;SDS011;25099;51.946;4.838;2022-07-21T14:25:51;18.10;;;2.80;;
39370;SDS011;25099;51.946;4.838;2022-07-21T14:28:18;11.48;;;2.72;;
39370;SDS011;25099;51.946;4.838;2022-07-21T14:30:44;10.30;;;2.53;;
39370;SDS011;25099;51.946;4.838;2022-07-21T14:33:10;11.05;;;2.55;;
39370;SDS011;25099;51.946;4.838;2022-07-21T14:35:36;10.02;;;2.40;;
39370;SDS011;25099;51.946;4.838;2022-07-21T14:38:02;9.57;;;2.30;;
39370;SDS011;25099;51.946;4.838;2022-07-21T14:40:28;5.88;;;1.85;;
39370;SDS011;25099;51.946;4.838;2022-07-21T14:42:54;5.53;;;1.50;;
39370;SDS011;25099;51.946;4.838;2022-07-21T14:45:20;7.00;;;1.63;;
39370;SDS011;25099;51.946;4.838;2022-07-21T14:47:48;7.60;;;2.05;;
39370;SDS011;25099;51.946;4.838;2022-07-21T14:50:17;3.05;;;1.45;;
39370;SDS011;25099;51.946;4.838;2022-07-21T14:52:43;8.85;;;2.13;;
39370;SDS011;25099;51.946;4.838;2022-07-21T14:55:09;9.48;;;1.98;;
39370;SDS011;25099;51.946;4.838;2022-07-21T14:57:34;6.45;;;1.70;;
39370;SDS011;25099;51.946;4.838;2022-07-21T15:00:00;5.28;;;1.30;;
39370;SDS011;25099;51.946;4.838;2022-07-21T15:02:28;6.00;;;1.60;;
39370;SDS011;25099;51.946;4.838;2022-07-21T15:04:54;5.55;;;1.15;;